• Join FlightAware (Why Join?)
  • Login
  • US Flag 
05:02AM EDT


 

Airport Tracker/Info


-or-


 

Live Flight TrackerFlight Track Log ✈ BFF201 ✈ 08-May-2013 ✈ CYCY - CYVM

Flight Track Log - Related Links

Times and Time Zones

All times are in EDT time to prevent confusion due to time zone crossing. See the BFF201 flight status page for this flight to view local times or setup timezone preferences in your user account.

Time Position Orientation Groundspeed Altitude Reporting Facility
EDT Latitude Longitude Course Direction KTS MPH feet Rate Location/Type
11:34AM 69.8715 -67.4529 150° Southeast  Level FlightAware Approximate
11:35AM 69.8154 -67.3604 150° Southeast  Level FlightAware Approximate
11:36AM 69.7592 -67.2683 150° Southeast  Level FlightAware Approximate
11:37AM 69.7029 -67.1768 151° Southeast  Level FlightAware Approximate
11:38AM 69.6466 -67.0857 151° Southeast  Level FlightAware Approximate
11:39AM 69.5902 -66.9951 151° Southeast  Level FlightAware Approximate
11:40AM 69.5338 -66.9050 151° Southeast  Level FlightAware Approximate
11:41AM 69.4774 -66.8153 151° Southeast  Level FlightAware Approximate
11:42AM 69.4209 -66.7262 151° Southeast  Level FlightAware Approximate
11:43AM 69.3643 -66.6375 151° Southeast  Level FlightAware Approximate
11:44AM 69.3078 -66.5492 151° Southeast  Level FlightAware Approximate
11:45AM 69.2511 -66.4615 151° Southeast  Level FlightAware Approximate
11:46AM 69.1945 -66.3742 151° Southeast  Level FlightAware Approximate
11:47AM 69.1377 -66.2873 151° Southeast  Level FlightAware Approximate
11:48AM 69.0810 -66.2009 151° Southeast  Level FlightAware Approximate
11:49AM 69.0242 -66.1149 152° Southeast  Level FlightAware Approximate
11:50AM 68.9673 -66.0294 152° Southeast  Level FlightAware Approximate
11:51AM 68.9104 -65.9443 152° Southeast  Level FlightAware Approximate
11:52AM 68.8535 -65.8597 152° Southeast  Level FlightAware Approximate
11:53AM 68.7965 -65.7755 152° Southeast  Level FlightAware Approximate
11:54AM 68.7395 -65.6917 152° Southeast  Level FlightAware Approximate
11:55AM 68.6824 -65.6083 152° Southeast  Level FlightAware Approximate
11:56AM 68.6254 -65.5254 152° Southeast  Level FlightAware Approximate
11:57AM 68.5682 -65.4429 152° Southeast  Level FlightAware Approximate
11:58AM 68.5110 -65.3608 152° Southeast  Level FlightAware Approximate
11:59AM 68.4538 -65.2791 152° Southeast  Level FlightAware Approximate
12:00PM 68.3968 -65.1965 152° Southeast  Level FlightAware Approximate
12:01PM 68.3399 -65.1135 152° Southeast  Level FlightAware Approximate
12:02PM 68.2830 -65.0310 152° Southeast  Level FlightAware Approximate
12:03PM 68.2257 -64.9507 154° Southeast  Level FlightAware Approximate
12:04PM 68.1678 -64.8734 154° Southeast  Level FlightAware Approximate
12:05PM 68.1099 -64.7965 154° Southeast  Level FlightAware Approximate
12:06PM 68.0531 -64.7146 151° Southeast  Level FlightAware Approximate
12:07PM 67.9964 -64.6320 151° Southeast  Level FlightAware Approximate
12:08PM 67.9396 -64.5498 151° Southeast  Level FlightAware Approximate
12:09PM 67.8823 -64.4706 153° Southeast  Level FlightAware Approximate
12:10PM 67.8246 -64.3936 153° Southeast  Level FlightAware Approximate
12:11PM 67.7669 -64.3169 153° Southeast  Level FlightAware Approximate
12:12PM 67.7080 -64.2474 155° Southeast  Level FlightAware Approximate
12:13PM 67.6509 -64.1679 150° Southeast  Level FlightAware Approximate
12:14PM 67.5938 -64.0891 155° Southeast  Level FlightAware Approximate
12:15PM 67.5458 -64.0314 155° Southeast  Level Estimated
12:16PM 67.5458 -64.0314 155° Southeast  Level Estimated
12:17PM 67.5458 -64.0314 155° Southeast  Level Estimated
12:18PM 67.5458 -64.0314 155° Southeast  Level Estimated
12:19PM 67.5458 -64.0314 155° Southeast  Level Estimated
12:20PM 67.5458 -64.0314 155° Southeast  Level Estimated
12:21PM 67.5458 -64.0314 155° Southeast  Level Estimated
12:22PM 67.5458 -64.0314 155° Southeast  Level Estimated
12:23PM 67.5458 -64.0314 155° Southeast  Level Estimated
12:24PM 67.5458 -64.0314 155° Southeast  Level Estimated
12:25PM 67.5458 -64.0314 155° Southeast  Level Estimated
12:26PM 67.5458 -64.0314 155° Southeast  Level Estimated
12:27PM 67.5458 -64.0314 155° Southeast  Level Estimated
12:28PM 67.5458 -64.0314 155° Southeast  Level Estimated
12:29PM 67.5458 -64.0314 155° Southeast  Level Estimated
12:30PM 67.5458 -64.0314 155° Southeast  Level Estimated